Time;durP1;ratioP1;P1;durP2;ratioP2;P2;SDS_P1;SDS_P2;PMS_P1;PMS_P2;Temp;Humidity;BMP_temperature;BMP_pressure;BME280_temperature;BME280_humidity;BME280_pressure;Samples;Min_cycle;Max_cycle;Signal;HPM_P1;HPM_P2
2022/12/02 00:01:18;;;;;;;62.17;24.77;;;;;;;;;;5112695;28;20504;-63
2022/12/02 00:03:44;;;;;;;57.35;23.45;;;;;;;;;;5105923;28;20097;-63
2022/12/02 00:06:30;;;;;;;58.97;23.60;;;;;;;;;;5092348;28;20044;-63
2022/12/02 00:09:02;;;;;;;56.42;23.13;;;;;;;;;;5099529;28;20039;-63
2022/12/02 00:11:31;;;;;;;55.95;23.77;;;;;;;;;;5112056;28;20114;-63
2022/12/02 00:13:59;;;;;;;55.00;23.58;;;;;;;;;;5113191;28;20347;-63
2022/12/02 00:16:25;;;;;;;57.95;23.20;;;;;;;;;;5112140;28;20107;-63
2022/12/02 00:18:52;;;;;;;55.08;22.48;;;;;;;;;;5113109;28;20047;-63
2022/12/02 00:21:18;;;;;;;54.70;23.13;;;;;;;;;;5112881;28;20442;-63
2022/12/02 00:23:44;;;;;;;56.03;23.00;;;;;;;;;;5112582;28;20130;-63
2022/12/02 00:26:11;;;;;;;53.70;23.08;;;;;;;;;;5111685;28;20047;-63
2022/12/02 00:28:37;;;;;;;52.67;22.48;;;;;;;;;;5112574;28;20039;-63
2022/12/02 00:31:04;;;;;;;56.50;23.92;;;;;;;;;;5112227;28;20032;-63
2022/12/02 00:33:30;;;;;;;52.47;23.45;;;;;;;;;;5112906;28;20077;-63
2022/12/02 00:35:56;;;;;;;56.92;23.60;;;;;;;;;;5112450;28;20123;-63
2022/12/02 00:38:22;;;;;;;55.42;23.35;;;;;;;;;;5112456;28;20081;-63
2022/12/02 00:40:48;;;;;;;52.35;21.58;;;;;;;;;;5112339;28;20043;-63
2022/12/02 00:46:44;;;;;;;54.90;23.23;;;;;;;;;;5111899;28;20056;-63
2022/12/02 00:48:45;;;;;;;55.35;23.15;;;;;;;;;;5104534;28;20497;-63
2022/12/02 00:51:11;;;;;;;58.38;24.13;;;;;;;;;;5112519;28;20172;-63
2022/12/02 00:53:37;;;;;;;54.83;23.98;;;;;;;;;;5112343;28;20467;-63
2022/12/02 00:56:03;;;;;;;57.60;23.45;;;;;;;;;;5112432;28;20039;-63
2022/12/02 00:58:29;;;;;;;55.97;24.58;;;;;;;;;;5112581;28;20418;-63
2022/12/02 01:00:55;;;;;;;54.10;22.95;;;;;;;;;;5111868;28;20046;-63
2022/12/02 01:03:21;;;;;;;60.00;25.23;;;;;;;;;;5108196;28;20055;-63
2022/12/02 01:05:47;;;;;;;57.22;24.65;;;;;;;;;;5091761;28;20130;-63
2022/12/02 01:08:13;;;;;;;56.42;24.60;;;;;;;;;;5092740;28;20086;-63
2022/12/02 01:10:39;;;;;;;57.25;23.80;;;;;;;;;;5112097;28;20046;-63
2022/12/02 01:13:05;;;;;;;58.55;24.30;;;;;;;;;;5112093;28;20035;-63
2022/12/02 01:15:31;;;;;;;56.30;24.83;;;;;;;;;;5111639;28;20036;-63
2022/12/02 01:17:57;;;;;;;52.80;23.30;;;;;;;;;;5111766;28;20059;-63
2022/12/02 01:20:23;;;;;;;50.33;22.77;;;;;;;;;;5112053;28;20494;-63
2022/12/02 01:22:49;;;;;;;57.03;23.25;;;;;;;;;;5111566;28;20040;-63
2022/12/02 01:25:15;;;;;;;57.45;24.08;;;;;;;;;;5111988;28;20514;-63
2022/12/02 01:27:41;;;;;;;51.70;23.75;;;;;;;;;;5111523;28;20032;-63
2022/12/02 01:30:08;;;;;;;53.28;22.40;;;;;;;;;;5111511;28;20489;-63
2022/12/02 01:32:34;;;;;;;49.80;20.77;;;;;;;;;;5111771;28;20039;-63
2022/12/02 01:35:00;;;;;;;53.67;22.15;;;;;;;;;;5112005;28;20641;-63
2022/12/02 01:37:26;;;;;;;50.47;22.58;;;;;;;;;;5111356;28;20036;-63
2022/12/02 01:39:52;;;;;;;53.60;21.98;;;;;;;;;;5112031;28;20042;-63
2022/12/02 01:42:18;;;;;;;47.92;20.65;;;;;;;;;;5111949;28;20039;-63
2022/12/02 01:44:44;;;;;;;49.67;20.83;;;;;;;;;;5111424;28;20059;-63
2022/12/02 01:47:10;;;;;;;50.22;21.55;;;;;;;;;;5111411;28;20434;-63
2022/12/02 01:49:36;;;;;;;48.88;21.10;;;;;;;;;;5111710;28;20131;-63
2022/12/02 01:52:02;;;;;;;49.08;21.25;;;;;;;;;;5111021;28;20096;-63
2022/12/02 01:54:29;;;;;;;49.50;20.40;;;;;;;;;;5111881;28;20622;-63
2022/12/02 01:56:55;;;;;;;47.75;20.80;;;;;;;;;;5111801;28;20051;-63
2022/12/02 01:59:21;;;;;;;50.45;21.73;;;;;;;;;;5111217;28;20059;-63
2022/12/02 02:01:47;;;;;;;47.72;21.50;;;;;;;;;;5111351;28;20035;-63
2022/12/02 02:04:13;;;;;;;48.53;20.80;;;;;;;;;;5098326;28;20113;-63
2022/12/02 02:06:42;;;;;;;51.08;21.20;;;;;;;;;;5090255;28;20048;-63
2022/12/02 02:09:09;;;;;;;48.78;20.85;;;;;;;;;;5098443;28;20430;-63
2022/12/02 02:11:35;;;;;;;45.17;19.20;;;;;;;;;;5110906;28;20082;-63
2022/12/02 02:14:03;;;;;;;38.22;17.10;;;;;;;;;;5109315;28;20050;-63
2022/12/02 02:16:29;;;;;;;31.15;14.48;;;;;;;;;;5111297;28;20056;-63
2022/12/02 02:18:55;;;;;;;32.70;15.80;;;;;;;;;;5109932;28;20094;-63
2022/12/02 02:21:24;;;;;;;28.27;13.13;;;;;;;;;;5110780;28;20047;-63
2022/12/02 02:23:50;;;;;;;32.10;14.20;;;;;;;;;;5111196;28;20055;-63
2022/12/02 02:26:16;;;;;;;29.45;13.93;;;;;;;;;;5110901;28;20046;-63
2022/12/02 02:28:42;;;;;;;30.20;14.73;;;;;;;;;;5110371;28;20394;-63
2022/12/02 02:31:08;;;;;;;30.90;13.68;;;;;;;;;;5111273;28;20036;-63
2022/12/02 02:33:34;;;;;;;27.70;13.82;;;;;;;;;;5111286;28;20455;-63
2022/12/02 02:36:01;;;;;;;31.13;14.43;;;;;;;;;;5110714;28;20393;-63
2022/12/02 02:38:28;;;;;;;31.25;13.98;;;;;;;;;;5111266;28;20401;-63
2022/12/02 02:40:55;;;;;;;27.42;13.18;;;;;;;;;;5113860;28;20195;-63
2022/12/02 02:43:22;;;;;;;25.50;13.55;;;;;;;;;;5113945;28;20138;-63
2022/12/02 02:45:49;;;;;;;31.40;14.68;;;;;;;;;;5114649;28;20039;-63
2022/12/02 02:48:16;;;;;;;26.73;12.88;;;;;;;;;;5114827;28;20043;-63
2022/12/02 02:50:44;;;;;;;29.33;13.77;;;;;;;;;;5114112;28;20040;-63
2022/12/02 02:53:11;;;;;;;32.03;14.73;;;;;;;;;;5114516;28;20039;-63
2022/12/02 02:55:37;;;;;;;31.02;14.57;;;;;;;;;;5114670;28;20123;-63
2022/12/02 02:58:08;;;;;;;34.88;15.32;;;;;;;;;;5114071;28;20065;-63
2022/12/02 03:00:34;;;;;;;34.22;15.60;;;;;;;;;;5114322;28;20039;-63
2022/12/02 03:03:00;;;;;;;29.60;14.30;;;;;;;;;;5113100;28;20123;-63
2022/12/02 03:05:26;;;;;;;31.67;15.05;;;;;;;;;;5093496;28;20090;-63
2022/12/02 03:07:52;;;;;;;30.38;15.13;;;;;;;;;;5093740;28;20093;-63
2022/12/02 03:10:19;;;;;;;33.78;15.88;;;;;;;;;;5112438;28;20046;-63
2022/12/02 03:12:46;;;;;;;30.73;14.93;;;;;;;;;;5113565;28;20039;-63
2022/12/02 03:15:12;;;;;;;34.63;15.00;;;;;;;;;;5113970;28;20093;-63
2022/12/02 03:17:38;;;;;;;36.08;16.50;;;;;;;;;;5113756;28;20092;-63
2022/12/02 03:20:05;;;;;;;28.63;14.20;;;;;;;;;;5113629;28;20059;-63
2022/12/02 03:22:32;;;;;;;30.85;14.40;;;;;;;;;;5113774;28;20043;-63
2022/12/02 03:24:58;;;;;;;33.25;14.80;;;;;;;;;;5114068;28;20035;-63
2022/12/02 03:27:24;;;;;;;37.28;15.88;;;;;;;;;;5113253;28;20144;-63
2022/12/02 03:29:51;;;;;;;32.83;14.95;;;;;;;;;;5113770;28;20046;-63
2022/12/02 03:32:17;;;;;;;29.88;14.07;;;;;;;;;;5113623;28;20039;-63
2022/12/02 03:34:43;;;;;;;33.08;15.48;;;;;;;;;;5113586;28;20397;-63
2022/12/02 03:37:10;;;;;;;27.80;13.65;;;;;;;;;;5112390;28;20039;-63
2022/12/02 03:39:36;;;;;;;26.73;13.75;;;;;;;;;;5113536;28;20069;-63
2022/12/02 03:42:03;;;;;;;35.67;14.73;;;;;;;;;;5112953;28;20664;-63
2022/12/02 03:44:29;;;;;;;26.17;13.60;;;;;;;;;;5113850;28;20124;-63
2022/12/02 03:46:55;;;;;;;29.05;12.77;;;;;;;;;;5113360;28;20082;-63
2022/12/02 03:49:21;;;;;;;32.28;14.10;;;;;;;;;;5113084;28;20039;-63
2022/12/02 03:51:48;;;;;;;31.05;13.07;;;;;;;;;;5112558;28;20046;-63
2022/12/02 03:54:14;;;;;;;33.35;14.27;;;;;;;;;;5113429;28;20047;-63
2022/12/02 03:56:41;;;;;;;29.60;13.05;;;;;;;;;;5113013;28;20043;-63
2022/12/02 03:59:08;;;;;;;30.52;13.75;;;;;;;;;;5113271;28;20040;-63
2022/12/02 04:01:34;;;;;;;31.55;14.35;;;;;;;;;;5113062;28;20047;-63
2022/12/02 04:04:00;;;;;;;33.75;14.55;;;;;;;;;;5103005;28;20109;-63
2022/12/02 04:06:26;;;;;;;36.72;15.80;;;;;;;;;;5091116;28;20090;-63
2022/12/02 04:08:52;;;;;;;35.60;15.88;;;;;;;;;;5099622;28;20035;-63
2022/12/02 04:11:18;;;;;;;36.67;15.82;;;;;;;;;;5112356;28;20063;-63
2022/12/02 04:13:44;;;;;;;42.78;16.83;;;;;;;;;;5112854;28;20517;-63
2022/12/02 04:16:10;;;;;;;39.25;16.88;;;;;;;;;;5112396;28;20032;-63
2022/12/02 04:18:36;;;;;;;38.40;15.98;;;;;;;;;;5112358;28;20047;-63
2022/12/02 04:21:02;;;;;;;39.63;17.35;;;;;;;;;;5111110;28;20047;-63
2022/12/02 04:23:28;;;;;;;37.90;16.92;;;;;;;;;;5112831;28;20393;-63
2022/12/02 04:25:54;;;;;;;38.97;16.77;;;;;;;;;;5111117;28;20062;-63
2022/12/02 04:28:20;;;;;;;38.78;17.27;;;;;;;;;;5112623;28;20048;-63
2022/12/02 04:30:46;;;;;;;44.42;17.73;;;;;;;;;;5112272;28;20067;-63
2022/12/02 04:33:12;;;;;;;39.05;17.33;;;;;;;;;;5112363;28;20078;-63
2022/12/02 04:35:38;;;;;;;37.97;17.10;;;;;;;;;;5112362;28;20046;-63
2022/12/02 04:38:04;;;;;;;41.88;16.98;;;;;;;;;;5112837;28;20046;-63
2022/12/02 04:40:30;;;;;;;38.20;17.60;;;;;;;;;;5112676;28;20085;-63
2022/12/02 04:42:56;;;;;;;42.25;17.08;;;;;;;;;;5112252;28;20039;-63
2022/12/02 04:45:22;;;;;;;40.53;17.30;;;;;;;;;;5112648;28;20039;-63
2022/12/02 04:47:48;;;;;;;40.58;17.45;;;;;;;;;;5112446;28;20375;-63
2022/12/02 04:50:14;;;;;;;40.63;18.40;;;;;;;;;;5112215;28;20042;-63
2022/12/02 04:52:40;;;;;;;43.90;18.45;;;;;;;;;;5112496;28;20081;-63
2022/12/02 04:55:07;;;;;;;43.42;18.25;;;;;;;;;;5112567;28;20164;-63
2022/12/02 04:57:33;;;;;;;44.03;17.63;;;;;;;;;;5111774;28;20047;-63
2022/12/02 04:59:59;;;;;;;42.90;18.48;;;;;;;;;;5112499;28;20039;-63
2022/12/02 05:02:25;;;;;;;44.55;18.20;;;;;;;;;;5111475;28;20048;-63
2022/12/02 05:04:51;;;;;;;45.10;17.73;;;;;;;;;;5095189;28;20436;-63
2022/12/02 05:07:17;;;;;;;40.58;18.38;;;;;;;;;;5091770;28;20071;-63
2022/12/02 05:09:43;;;;;;;46.75;18.42;;;;;;;;;;5105439;28;20207;-63
2022/12/02 05:12:09;;;;;;;46.15;19.52;;;;;;;;;;5111722;28;20053;-63
2022/12/02 05:14:35;;;;;;;44.58;19.45;;;;;;;;;;5112109;28;20046;-63
2022/12/02 05:17:01;;;;;;;40.88;17.80;;;;;;;;;;5111858;28;20130;-63
2022/12/02 05:19:27;;;;;;;37.92;17.83;;;;;;;;;;5111888;28;20123;-63
2022/12/02 05:21:53;;;;;;;49.38;18.77;;;;;;;;;;5110842;28;20055;-63
2022/12/02 05:24:19;;;;;;;47.50;18.42;;;;;;;;;;5111877;28;20045;-63
2022/12/02 05:26:45;;;;;;;43.55;19.02;;;;;;;;;;5111446;28;20103;-63
2022/12/02 05:29:11;;;;;;;40.88;18.17;;;;;;;;;;5112085;28;20032;-63
2022/12/02 05:31:37;;;;;;;49.30;19.30;;;;;;;;;;5111941;28;20074;-63
2022/12/02 05:34:03;;;;;;;41.47;18.65;;;;;;;;;;5111686;28;20092;-63
2022/12/02 05:36:29;;;;;;;50.40;20.25;;;;;;;;;;5111267;28;20031;-63
2022/12/02 05:38:55;;;;;;;50.05;19.48;;;;;;;;;;5112192;28;20050;-63
2022/12/02 05:41:21;;;;;;;51.63;21.85;;;;;;;;;;5111860;28;20050;-63
2022/12/02 05:43:47;;;;;;;51.20;19.70;;;;;;;;;;5112201;28;20043;-63
2022/12/02 05:46:15;;;;;;;50.03;20.27;;;;;;;;;;5111949;28;20127;-63
2022/12/02 05:48:42;;;;;;;54.53;20.85;;;;;;;;;;5111714;28;20126;-63
2022/12/02 05:51:12;;;;;;;49.45;19.88;;;;;;;;;;5112141;28;20473;-63
2022/12/02 05:53:39;;;;;;;52.63;21.13;;;;;;;;;;5112272;28;20039;-63
2022/12/02 05:56:06;;;;;;;51.40;20.00;;;;;;;;;;5111937;28;20147;-63
2022/12/02 05:58:32;;;;;;;64.45;22.55;;;;;;;;;;5110652;28;20035;-63
2022/12/02 06:00:59;;;;;;;51.10;20.63;;;;;;;;;;5112053;28;20043;-63
2022/12/02 06:03:25;;;;;;;60.63;22.15;;;;;;;;;;5106930;28;20047;-63
2022/12/02 06:05:52;;;;;;;57.28;21.77;;;;;;;;;;5091774;28;20360;-63
2022/12/02 06:08:23;;;;;;;64.80;21.83;;;;;;;;;;5093412;28;20044;-63
2022/12/02 06:10:55;;;;;;;55.47;21.35;;;;;;;;;;5111669;28;20075;-63
2022/12/02 06:13:41;;;;;;;55.70;21.23;;;;;;;;;;5112557;28;20047;-63
2022/12/02 06:16:11;;;;;;;52.05;21.00;;;;;;;;;;5115657;28;20047;-63
2022/12/02 06:18:38;;;;;;;55.15;20.92;;;;;;;;;;5115122;28;20055;-63
2022/12/02 06:21:11;;;;;;;53.45;21.30;;;;;;;;;;5115943;28;20128;-63
2022/12/02 06:23:38;;;;;;;59.47;22.65;;;;;;;;;;5115791;28;20039;-63
2022/12/02 06:26:04;;;;;;;52.97;21.20;;;;;;;;;;5115093;28;20450;-63
2022/12/02 06:28:31;;;;;;;51.80;20.60;;;;;;;;;;5115748;28;20506;-63
2022/12/02 06:31:17;;;;;;;53.33;21.73;;;;;;;;;;5115620;28;20039;-63
2022/12/02 06:33:45;;;;;;;59.35;21.05;;;;;;;;;;5114839;28;20046;-63
2022/12/02 06:36:22;;;;;;;58.80;22.10;;;;;;;;;;5115668;28;20363;-63
2022/12/02 06:38:50;;;;;;;59.90;21.90;;;;;;;;;;5115402;28;20043;-63
2022/12/02 06:41:21;;;;;;;61.45;23.75;;;;;;;;;;5115017;28;20035;-63
2022/12/02 06:46:33;;;;;;;60.95;22.85;;;;;;;;;;5114756;28;20130;-63
2022/12/02 06:49:01;;;;;;;64.88;23.92;;;;;;;;;;5115202;28;20096;-63
2022/12/02 06:51:27;;;;;;;58.22;22.35;;;;;;;;;;5115212;28;20042;-63
2022/12/02 06:53:53;;;;;;;58.58;23.58;;;;;;;;;;5115161;28;20482;-63
2022/12/02 06:56:21;;;;;;;62.40;23.10;;;;;;;;;;5115068;28;20039;-63
2022/12/02 06:58:50;;;;;;;60.60;22.38;;;;;;;;;;5115129;28;20071;-63
2022/12/02 07:01:21;;;;;;;62.30;24.73;;;;;;;;;;5115096;28;20177;-63
2022/12/02 07:04:05;;;;;;;66.45;24.90;;;;;;;;;;5107034;28;20043;-63
2022/12/02 07:06:31;;;;;;;64.43;23.67;;;;;;;;;;5094547;28;20079;-63
2022/12/02 07:08:59;;;;;;;65.47;24.33;;;;;;;;;;5101515;28;20036;-63
2022/12/02 07:14:35;;;;;;;61.63;23.15;;;;;;;;;;5114815;28;20039;-63
2022/12/02 07:17:10;;;;;;;59.50;21.60;;;;;;;;;;5096215;28;20043;-62
2022/12/02 07:19:37;;;;;;;64.68;24.02;;;;;;;;;;5113289;28;20058;-62
2022/12/02 07:22:10;;;;;;;60.15;23.05;;;;;;;;;;5113963;28;20075;-62
2022/12/02 07:24:36;;;;;;;62.20;23.85;;;;;;;;;;5096210;28;20035;-62
2022/12/02 07:27:02;;;;;;;63.70;22.75;;;;;;;;;;5110711;28;20789;-62
2022/12/02 07:29:30;;;;;;;60.08;22.08;;;;;;;;;;5114079;28;20445;-62
2022/12/02 07:31:56;;;;;;;62.00;23.45;;;;;;;;;;5099068;28;20111;-63
2022/12/02 07:34:22;;;;;;;63.22;24.80;;;;;;;;;;5102913;28;20371;-63
2022/12/02 07:36:48;;;;;;;63.22;22.42;;;;;;;;;;5098896;28;20119;-62
2022/12/02 07:39:14;;;;;;;64.57;23.83;;;;;;;;;;5113103;28;20122;-63
2022/12/02 07:41:40;;;;;;;62.05;23.98;;;;;;;;;;5112653;28;20051;-63
2022/12/02 07:44:06;;;;;;;66.15;23.77;;;;;;;;;;5112410;28;20044;-64
2022/12/02 07:46:32;;;;;;;67.88;24.17;;;;;;;;;;5113015;28;20039;-64
2022/12/02 07:48:58;;;;;;;68.65;25.85;;;;;;;;;;5111958;28;20047;-65
2022/12/02 07:51:24;;;;;;;65.85;24.70;;;;;;;;;;5111290;28;20084;-64
2022/12/02 07:53:50;;;;;;;69.00;25.20;;;;;;;;;;5082524;28;20074;-63
2022/12/02 07:56:17;;;;;;;66.03;24.83;;;;;;;;;;5110802;28;20055;-65
2022/12/02 07:58:43;;;;;;;68.35;24.17;;;;;;;;;;5112571;28;20046;-64
2022/12/02 08:01:09;;;;;;;71.07;25.08;;;;;;;;;;5112341;28;20500;-65
2022/12/02 08:03:35;;;;;;;74.28;25.30;;;;;;;;;;5112193;28;20040;-65
2022/12/02 08:06:01;;;;;;;67.45;23.58;;;;;;;;;;5112507;28;20051;-65
2022/12/02 08:08:27;;;;;;;66.22;23.85;;;;;;;;;;5112297;28;20056;-64
2022/12/02 08:10:53;;;;;;;66.25;23.77;;;;;;;;;;5111801;28;20408;-65
2022/12/02 08:13:19;;;;;;;63.28;23.45;;;;;;;;;;5112253;28;20039;-64
2022/12/02 08:15:45;;;;;;;64.90;24.75;;;;;;;;;;5112003;28;20043;-64
2022/12/02 08:18:11;;;;;;;64.20;24.35;;;;;;;;;;5112446;28;20056;-64
2022/12/02 08:20:37;;;;;;;63.67;22.55;;;;;;;;;;5110561;28;20055;-66
2022/12/02 08:23:04;;;;;;;55.25;20.90;;;;;;;;;;5110600;28;20477;-65
2022/12/02 08:25:30;;;;;;;67.45;23.88;;;;;;;;;;5108418;28;20114;-65
2022/12/02 08:27:56;;;;;;;61.72;22.65;;;;;;;;;;5101984;28;20044;-65
2022/12/02 08:30:22;;;;;;;58.08;22.20;;;;;;;;;;5111655;28;20067;-65
2022/12/02 08:32:48;;;;;;;58.35;21.00;;;;;;;;;;5109878;28;20062;-65
2022/12/02 08:35:14;;;;;;;55.75;22.08;;;;;;;;;;5111712;28;20036;-65
2022/12/02 08:37:40;;;;;;;57.10;22.40;;;;;;;;;;5110545;28;20040;-65
2022/12/02 08:40:07;;;;;;;57.75;21.67;;;;;;;;;;5111609;28;20050;-65
2022/12/02 08:42:33;;;;;;;57.90;22.48;;;;;;;;;;5110629;28;20047;-64
2022/12/02 08:44:59;;;;;;;56.90;21.48;;;;;;;;;;5110597;28;20558;-64
2022/12/02 08:47:25;;;;;;;61.40;21.15;;;;;;;;;;5111698;28;20043;-64
2022/12/02 08:49:51;;;;;;;54.88;21.13;;;;;;;;;;5111464;28;20043;-64
2022/12/02 08:52:17;;;;;;;54.08;20.63;;;;;;;;;;5106660;28;20039;-64
2022/12/02 08:54:44;;;;;;;62.88;22.30;;;;;;;;;;5110766;28;20394;-64
2022/12/02 08:57:10;;;;;;;57.42;21.13;;;;;;;;;;5104561;28;20039;-61
2022/12/02 08:59:36;;;;;;;60.13;22.35;;;;;;;;;;5106451;28;20114;-62
2022/12/02 09:02:02;;;;;;;62.08;22.05;;;;;;;;;;5105615;28;20150;-61
2022/12/02 09:04:28;;;;;;;55.50;21.17;;;;;;;;;;5103566;28;20110;-61
2022/12/02 09:06:55;;;;;;;62.47;21.52;;;;;;;;;;5105333;28;20052;-60
2022/12/02 09:09:21;;;;;;;61.33;21.65;;;;;;;;;;5108253;28;20036;-62
2022/12/02 09:11:47;;;;;;;57.47;22.02;;;;;;;;;;5111034;28;20043;-64
2022/12/02 09:14:13;;;;;;;66.10;23.08;;;;;;;;;;5105947;28;20435;-62
2022/12/02 09:16:39;;;;;;;62.70;22.33;;;;;;;;;;5094301;28;20063;-62
2022/12/02 09:19:04;;;;;;;67.20;22.85;;;;;;;;;;5110998;28;20044;-63
2022/12/02 09:21:31;;;;;;;66.45;22.52;;;;;;;;;;5108593;28;20443;-63
2022/12/02 09:23:57;;;;;;;64.28;23.27;;;;;;;;;;5110687;28;20050;-62
2022/12/02 09:26:23;;;;;;;63.88;22.50;;;;;;;;;;5105564;28;20031;-61
2022/12/02 09:28:49;;;;;;;67.18;22.30;;;;;;;;;;5108266;28;20112;-62
2022/12/02 09:31:15;;;;;;;64.05;22.65;;;;;;;;;;5086811;28;20043;-62
2022/12/02 09:33:41;;;;;;;64.30;21.60;;;;;;;;;;5110479;28;20039;-62
2022/12/02 09:36:07;;;;;;;56.70;21.38;;;;;;;;;;5107208;28;20540;-61
2022/12/02 09:38:33;;;;;;;56.20;20.75;;;;;;;;;;5100025;28;20043;-62
2022/12/02 09:40:59;;;;;;;63.72;21.90;;;;;;;;;;5101163;28;20051;-63
2022/12/02 09:43:26;;;;;;;57.03;20.23;;;;;;;;;;5104701;28;20079;-61
2022/12/02 09:45:53;;;;;;;61.30;22.58;;;;;;;;;;5107830;28;20035;-62
2022/12/02 09:48:19;;;;;;;63.67;21.73;;;;;;;;;;5097756;28;20478;-61
2022/12/02 09:50:45;;;;;;;55.00;21.50;;;;;;;;;;5103053;28;20040;-62
2022/12/02 09:53:12;;;;;;;60.20;21.23;;;;;;;;;;5110313;28;20035;-63
2022/12/02 09:55:38;;;;;;;55.38;20.17;;;;;;;;;;5107817;28;20027;-61
2022/12/02 09:58:18;;;;;;;55.95;20.52;;;;;;;;;;5114215;28;20044;-62
2022/12/02 10:00:44;;;;;;;59.22;20.13;;;;;;;;;;5107864;28;20355;-63
2022/12/02 10:03:12;;;;;;;59.97;21.33;;;;;;;;;;5107638;28;20035;-62
2022/12/02 10:05:38;;;;;;;77.38;23.60;;;;;;;;;;5103854;28;20156;-63
2022/12/02 10:08:07;;;;;;;61.53;20.38;;;;;;;;;;5115798;28;20078;-64
2022/12/02 10:10:35;;;;;;;63.92;21.95;;;;;;;;;;5106636;28;20040;-62
2022/12/02 10:13:01;;;;;;;63.58;21.27;;;;;;;;;;5099442;28;20032;-62
2022/12/02 10:15:30;;;;;;;64.05;22.88;;;;;;;;;;5097089;28;20107;-63
2022/12/02 10:17:57;;;;;;;65.85;23.73;;;;;;;;;;5102565;28;20058;-62
2022/12/02 10:20:24;;;;;;;73.35;23.65;;;;;;;;;;5105129;28;20055;-62
2022/12/02 10:23:06;;;;;;;78.13;25.05;;;;;;;;;;5114138;28;20051;-62
2022/12/02 10:25:32;;;;;;;71.57;23.55;;;;;;;;;;5114792;28;20111;-62
2022/12/02 10:27:58;;;;;;;68.95;23.40;;;;;;;;;;5114168;28;20028;-63
2022/12/02 10:30:26;;;;;;;68.97;23.20;;;;;;;;;;5110636;28;20084;-63
2022/12/02 10:32:58;;;;;;;71.25;24.15;;;;;;;;;;5114300;28;20039;-62
2022/12/02 10:35:25;;;;;;;63.60;22.83;;;;;;;;;;5107653;28;20047;-63
2022/12/02 10:37:51;;;;;;;62.65;21.85;;;;;;;;;;5112785;28;20113;-62
2022/12/02 10:40:18;;;;;;;73.40;23.50;;;;;;;;;;5103709;28;20081;-62
2022/12/02 10:42:44;;;;;;;59.17;22.75;;;;;;;;;;5114011;28;20046;-62
2022/12/02 10:45:21;;;;;;;66.55;23.30;;;;;;;;;;5110254;28;20042;-62
2022/12/02 10:47:47;;;;;;;62.30;22.30;;;;;;;;;;5104915;28;20383;-63
2022/12/02 10:50:21;;;;;;;63.20;22.45;;;;;;;;;;5103424;28;20088;-63
2022/12/02 10:52:49;;;;;;;59.42;22.70;;;;;;;;;;5110100;28;20159;-62
2022/12/02 10:55:16;;;;;;;61.53;21.65;;;;;;;;;;5111596;28;20383;-62
2022/12/02 10:57:43;;;;;;;53.60;21.45;;;;;;;;;;5114717;28;20040;-60
2022/12/02 11:00:29;;;;;;;57.42;21.50;;;;;;;;;;5110277;28;20050;-60
2022/12/02 11:02:56;;;;;;;59.33;20.55;;;;;;;;;;5112979;27;20044;-62
2022/12/02 11:05:24;;;;;;;55.00;21.02;;;;;;;;;;5098289;28;20047;-62
2022/12/02 11:08:10;;;;;;;56.60;20.15;;;;;;;;;;5109317;28;20374;-62
2022/12/02 11:10:38;;;;;;;57.17;21.35;;;;;;;;;;5091673;28;20048;-62
2022/12/02 11:13:07;;;;;;;58.20;20.92;;;;;;;;;;5105059;28;20031;-62
2022/12/02 11:15:33;;;;;;;55.38;20.63;;;;;;;;;;5109470;28;20040;-62
2022/12/02 11:17:59;;;;;;;56.13;21.40;;;;;;;;;;5112693;27;20055;-62
2022/12/02 11:20:30;;;;;;;61.28;21.73;;;;;;;;;;5096253;28;20465;-63
2022/12/02 11:22:59;;;;;;;61.97;23.48;;;;;;;;;;5099214;28;20071;-64
2022/12/02 11:25:43;;;;;;;62.10;22.00;;;;;;;;;;5111333;28;20055;-63
2022/12/02 11:28:15;;;;;;;60.20;22.75;;;;;;;;;;5100252;28;20679;-63
2022/12/02 11:30:41;;;;;;;62.50;22.00;;;;;;;;;;5111384;27;20031;-62
2022/12/02 11:33:11;;;;;;;56.60;21.73;;;;;;;;;;5100161;28;20063;-62
2022/12/02 11:35:57;;;;;;;60.13;22.15;;;;;;;;;;5108643;28;20036;-62
2022/12/02 11:38:25;;;;;;;59.17;23.23;;;;;;;;;;5112087;28;20047;-62
2022/12/02 11:40:58;;;;;;;65.43;24.23;;;;;;;;;;5113333;28;20123;-62
2022/12/02 11:43:40;;;;;;;61.53;23.80;;;;;;;;;;5112875;28;20120;-62
2022/12/02 11:46:06;;;;;;;62.58;24.50;;;;;;;;;;5110024;28;20035;-62
2022/12/02 11:48:32;;;;;;;69.75;26.08;;;;;;;;;;5112626;28;20044;-62
2022/12/02 11:50:58;;;;;;;66.07;26.23;;;;;;;;;;5112725;28;20040;-62
2022/12/02 11:53:24;;;;;;;69.47;25.92;;;;;;;;;;5113794;28;20627;-62
2022/12/02 11:55:51;;;;;;;76.05;27.65;;;;;;;;;;5111820;28;20051;-62
2022/12/02 11:58:29;;;;;;;64.78;25.88;;;;;;;;;;5112527;28;20039;-62
2022/12/02 12:01:01;;;;;;;71.55;25.50;;;;;;;;;;5112194;28;20050;-62
2022/12/02 12:03:27;;;;;;;72.65;28.65;;;;;;;;;;5107019;28;20036;-62
2022/12/02 12:06:08;;;;;;;79.20;29.10;;;;;;;;;;5112117;28;20135;-61
2022/12/02 12:08:35;;;;;;;69.47;27.50;;;;;;;;;;5110464;28;20053;-62
2022/12/02 12:11:17;;;;;;;76.53;28.98;;;;;;;;;;5110403;28;20043;-62
2022/12/02 12:14:04;;;;;;;72.90;28.25;;;;;;;;;;5108641;28;20067;-62
2022/12/02 12:16:34;;;;;;;73.65;28.10;;;;;;;;;;5089558;28;20181;-63
2022/12/02 12:19:01;;;;;;;72.47;28.98;;;;;;;;;;5107813;28;20111;-62
2022/12/02 12:21:30;;;;;;;75.13;27.38;;;;;;;;;;5104281;28;20172;-64
2022/12/02 12:24:16;;;;;;;79.65;29.67;;;;;;;;;;5106245;28;20081;-63
2022/12/02 12:26:46;;;;;;;80.05;30.38;;;;;;;;;;5102342;28;20035;-64
2022/12/02 12:29:12;;;;;;;80.07;30.80;;;;;;;;;;5093789;28;20092;-61
2022/12/02 12:31:38;;;;;;;75.90;29.40;;;;;;;;;;5102733;28;20075;-62
2022/12/02 12:34:05;;;;;;;80.38;29.45;;;;;;;;;;5110447;28;20031;-62
2022/12/02 12:36:31;;;;;;;72.88;28.90;;;;;;;;;;5111440;28;20031;-62
2022/12/02 12:38:57;;;;;;;78.68;30.23;;;;;;;;;;5111566;28;20275;-64
2022/12/02 12:41:23;;;;;;;76.45;30.13;;;;;;;;;;5110401;28;20050;-64
2022/12/02 12:43:49;;;;;;;67.93;28.70;;;;;;;;;;5091795;28;20143;-64
2022/12/02 12:46:15;;;;;;;75.30;30.45;;;;;;;;;;5111317;28;20046;-63
2022/12/02 12:48:41;;;;;;;75.72;30.45;;;;;;;;;;5110806;28;20047;-62
2022/12/02 12:51:07;;;;;;;74.53;31.23;;;;;;;;;;5110260;28;20466;-62
2022/12/02 12:53:33;;;;;;;76.75;29.75;;;;;;;;;;5111004;28;20040;-63
2022/12/02 12:56:00;;;;;;;71.40;28.38;;;;;;;;;;5110920;28;20038;-63
2022/12/02 12:58:26;;;;;;;77.32;31.23;;;;;;;;;;5101721;28;20075;-63
2022/12/02 13:00:52;;;;;;;69.13;28.20;;;;;;;;;;5104244;28;20089;-63
2022/12/02 13:03:18;;;;;;;71.63;27.50;;;;;;;;;;5107324;28;20036;-62
2022/12/02 13:05:44;;;;;;;67.72;28.17;;;;;;;;;;5110795;28;20050;-63
2022/12/02 13:08:10;;;;;;;71.50;29.48;;;;;;;;;;5095125;28;20470;-63
2022/12/02 13:10:36;;;;;;;64.53;27.98;;;;;;;;;;5107296;28;20490;-63
2022/12/02 13:13:02;;;;;;;74.43;30.40;;;;;;;;;;5101638;28;20050;-63
2022/12/02 13:15:28;;;;;;;72.55;29.15;;;;;;;;;;5110464;28;20450;-63
2022/12/02 13:17:54;;;;;;;71.22;29.20;;;;;;;;;;5102199;28;20044;-63
2022/12/02 13:20:20;;;;;;;66.03;28.20;;;;;;;;;;5103237;28;20058;-64
2022/12/02 13:22:47;;;;;;;74.63;29.85;;;;;;;;;;5099600;28;20378;-63
2022/12/02 13:25:13;;;;;;;65.70;28.45;;;;;;;;;;5110401;28;20035;-63
2022/12/02 13:27:40;;;;;;;67.13;29.80;;;;;;;;;;5111327;28;20550;-63
2022/12/02 13:30:07;;;;;;;71.95;30.55;;;;;;;;;;5110725;28;20047;-62
2022/12/02 13:32:33;;;;;;;68.53;28.58;;;;;;;;;;5103855;28;20035;-64
2022/12/02 13:34:59;;;;;;;66.93;27.60;;;;;;;;;;5109911;28;20126;-63
2022/12/02 13:37:25;;;;;;;61.85;26.88;;;;;;;;;;5110872;28;20039;-63
2022/12/02 13:39:51;;;;;;;66.30;28.40;;;;;;;;;;5093285;28;20367;-64
2022/12/02 13:42:17;;;;;;;60.10;25.73;;;;;;;;;;5097412;28;20051;-63
2022/12/02 13:44:43;;;;;;;66.07;28.83;;;;;;;;;;5110345;28;20047;-63
2022/12/02 13:47:09;;;;;;;60.90;26.58;;;;;;;;;;5100484;28;20039;-64
2022/12/02 13:49:35;;;;;;;64.68;27.15;;;;;;;;;;5104146;28;20048;-62
2022/12/02 13:52:01;;;;;;;60.00;26.65;;;;;;;;;;5093107;28;20032;-66
2022/12/02 13:54:28;;;;;;;58.67;26.63;;;;;;;;;;5103267;28;20056;-64
2022/12/02 13:56:54;;;;;;;67.70;27.40;;;;;;;;;;5097904;28;20043;-65
2022/12/02 13:59:20;;;;;;;61.97;27.75;;;;;;;;;;5101767;28;20474;-64
2022/12/02 14:01:46;;;;;;;61.53;26.08;;;;;;;;;;5097817;28;20035;-63
2022/12/02 14:04:12;;;;;;;65.05;27.95;;;;;;;;;;5109322;28;20177;-63
2022/12/02 14:06:38;;;;;;;63.10;27.60;;;;;;;;;;5107083;28;20110;-63
2022/12/02 14:09:04;;;;;;;62.60;27.63;;;;;;;;;;5108211;28;20035;-62
2022/12/02 14:11:30;;;;;;;64.97;28.15;;;;;;;;;;5107376;28;20042;-63
2022/12/02 14:13:56;;;;;;;62.90;27.35;;;;;;;;;;5103025;28;20048;-62
2022/12/02 14:16:22;;;;;;;63.53;28.30;;;;;;;;;;5105865;28;20032;-63
2022/12/02 14:18:48;;;;;;;64.65;29.90;;;;;;;;;;5104507;28;20044;-63
2022/12/02 14:21:14;;;;;;;63.78;29.25;;;;;;;;;;5101924;28;20363;-63
2022/12/02 14:23:40;;;;;;;72.20;29.80;;;;;;;;;;5102748;28;20050;-62
2022/12/02 14:26:06;;;;;;;68.25;29.85;;;;;;;;;;5105837;28;20039;-64